Time;durP1;ratioP1;P1;durP2;ratioP2;P2;SDS_P1;SDS_P2;PMS_P1;PMS_P2;Temp;Humidity;BMP_temperature;BMP_pressure;BME280_temperature;BME280_humidity;BME280_pressure;Samples;Min_cycle;Max_cycle;Signal;HPM_P1;HPM_P2
2024/04/15 00:00:06;;;;;;;1999.90;999.90;;;15.40;73.30;;;;;;6475500;22;20258;-68
2024/04/15 00:02:32;;;;;;;1999.90;999.90;;;15.40;73.30;;;;;;6475908;22;20397;-68
2024/04/15 00:04:59;;;;;;;1999.90;999.90;;;15.40;73.40;;;;;;6475565;22;20256;-68
2024/04/15 00:26:03;;;;;;;1999.90;999.90;;;15.10;74.00;;;;;;6513762;21;20801;-68
2024/04/15 00:28:29;;;;;;;1999.90;999.90;;;15.10;74.00;;;;;;6526861;22;20213;-68
2024/04/15 00:30:55;;;;;;;1999.90;999.90;;;15.10;73.90;;;;;;6526582;22;20280;-69
2024/04/15 00:33:21;;;;;;;1999.90;999.90;;;15.00;74.00;;;;;;6527319;22;20213;-68
2024/04/15 00:38:20;;;;;;;1999.90;999.90;;;14.90;74.30;;;;;;6423577;22;20252;-69
2024/04/15 00:40:45;;;;;;;1999.90;999.90;;;14.90;74.70;;;;;;6380757;22;20227;-69
2024/04/15 00:43:13;;;;;;;1999.90;999.90;;;14.80;74.80;;;;;;6424507;22;20216;-69
2024/04/15 00:45:39;;;;;;;1999.90;999.90;;;14.80;75.00;;;;;;6380750;22;20227;-68
2024/04/15 00:48:07;;;;;;;1999.90;999.90;;;14.80;75.10;;;;;;6423202;22;20352;-69
2024/04/15 00:50:35;;;;;;;1999.90;999.90;;;14.80;75.30;;;;;;6424437;22;20291;-69
2024/04/15 00:53:03;;;;;;;1999.90;999.90;;;14.80;75.50;;;;;;6424492;22;20250;-69
2024/04/15 00:55:29;;;;;;;1999.90;999.90;;;14.80;75.60;;;;;;6424195;22;20318;-69
2024/04/15 01:00:54;;;;;;;1999.90;999.90;;;14.70;75.80;;;;;;6479558;21;20592;-69
2024/04/15 01:03:20;;;;;;;1999.90;999.90;;;14.70;76.00;;;;;;6475017;22;20214;-69
2024/04/15 01:09:10;;;;;;;1999.90;999.90;;;14.70;76.00;;;;;;6423776;22;20271;-69
2024/04/15 01:11:36;;;;;;;1999.90;999.90;;;14.60;76.20;;;;;;6424003;22;20215;-69
2024/04/15 01:14:02;;;;;;;1999.90;999.90;;;14.60;76.10;;;;;;6424295;22;20254;-70
2024/04/15 01:16:38;;;;;;;1999.90;999.90;;;14.60;76.40;;;;;;6423050;22;20236;-69
2024/04/15 01:19:05;;;;;;;1999.90;999.90;;;14.50;76.80;;;;;;6424700;22;20219;-69
2024/04/15 01:21:31;;;;;;;1999.90;999.90;;;14.50;76.70;;;;;;6380763;22;20263;-69
2024/04/15 01:24:03;;;;;;;1999.90;999.90;;;14.50;76.70;;;;;;6424271;22;21040;-68
2024/04/15 01:26:29;;;;;;;1999.90;999.90;;;14.50;76.90;;;;;;6422734;22;20703;-68
2024/04/15 01:28:55;;;;;;;1999.90;999.90;;;14.60;76.90;;;;;;6424496;22;20228;-69
2024/04/15 01:31:21;;;;;;;1999.90;999.90;;;14.60;76.90;;;;;;6424198;22;20219;-68
2024/04/15 01:33:47;;;;;;;1999.90;999.90;;;14.60;76.90;;;;;;6424068;22;20291;-69
2024/04/15 01:38:48;;;;;;;1999.90;999.90;;;14.60;76.90;;;;;;6493459;21;20784;-69
2024/04/15 01:41:14;;;;;;;1999.90;999.90;;;14.50;77.10;;;;;;6474476;22;20219;-68
2024/04/15 01:43:40;;;;;;;1999.90;999.90;;;14.50;77.30;;;;;;6474491;22;20222;-68
2024/04/15 01:48:48;;;;;;;1999.90;999.90;;;14.40;77.90;;;;;;6478327;21;20298;-69
2024/04/15 01:51:29;;;;;;;;;;;;;;;;;;;;;
2024/04/15 01:53:55;;;;;;;1999.90;999.90;;;14.30;78.30;;;;;;6475341;22;20540;-68
2024/04/15 01:56:21;;;;;;;1999.90;999.90;;;14.30;78.50;;;;;;6475004;22;20234;-68
2024/04/15 01:58:46;;;;;;;1999.90;999.90;;;14.30;78.60;;;;;;6477068;22;20265;-69
2024/04/15 02:01:12;;;;;;;1999.90;999.90;;;14.30;78.70;;;;;;6432505;22;20226;-68
2024/04/15 02:03:39;;;;;;;1999.90;999.90;;;14.30;78.70;;;;;;6476714;22;20214;-69
2024/04/15 02:06:05;;;;;;;1999.90;999.90;;;14.30;78.80;;;;;;6475387;22;20690;-69
2024/04/15 02:08:30;;;;;;;1999.90;999.90;;;14.40;78.70;;;;;;6476449;22;20261;-68
2024/04/15 02:10:56;;;;;;;1999.90;999.90;;;14.40;78.70;;;;;;6475899;22;20678;-69
2024/04/15 02:13:22;;;;;;;1999.90;999.90;;;14.50;78.80;;;;;;6476428;22;20218;-68
2024/04/15 02:24:13;;;;;;;1999.90;999.90;;;14.60;78.90;;;;;;6510828;21;20764;-68
2024/04/15 02:27:09;;;;;;;1999.90;999.90;;;14.60;78.70;;;;;;6520534;21;20609;-68
2024/04/15 02:29:35;;;;;;;1999.90;999.90;;;14.60;78.90;;;;;;6476913;22;20286;-69
2024/04/15 02:32:01;;;;;;;1999.90;999.90;;;14.70;78.80;;;;;;6476654;22;20219;-69
2024/04/15 02:34:27;;;;;;;1999.90;999.90;;;14.60;78.80;;;;;;6476629;22;20214;-69
2024/04/15 02:37:02;;;;;;;1999.90;999.90;;;14.60;78.80;;;;;;6472103;22;20266;-69
2024/04/15 02:39:28;;;;;;;1999.90;999.90;;;14.60;79.00;;;;;;6432364;22;20237;-69
2024/04/15 02:41:53;;;;;;;1999.90;999.90;;;14.50;79.10;;;;;;6476430;22;20723;-69
2024/04/15 02:44:19;;;;;;;1999.90;999.90;;;14.40;79.20;;;;;;6476269;22;20330;-68
2024/04/15 02:46:45;;;;;;;1999.90;999.90;;;14.40;79.50;;;;;;6475144;22;20227;-69
2024/04/15 02:49:11;;;;;;;1999.90;999.90;;;14.40;79.60;;;;;;6476502;22;20219;-69
2024/04/15 02:51:36;;;;;;;1999.90;999.90;;;14.40;79.70;;;;;;6432143;22;20308;-68
2024/04/15 02:54:02;;;;;;;1999.90;999.90;;;14.40;79.80;;;;;;6476269;22;20266;-69
2024/04/15 02:59:18;;;;;;;1999.90;999.90;;;14.40;80.70;;;;;;6424278;21;20409;-69
2024/04/15 03:01:50;;;;;;;1999.90;999.90;;;14.30;80.10;;;;;;6425778;22;20215;-69
2024/04/15 03:04:16;;;;;;;1999.90;999.90;;;14.30;80.10;;;;;;6425663;22;20706;-69
2024/04/15 03:06:41;;;;;;;1999.90;999.90;;;14.30;80.30;;;;;;6424267;22;20233;-69
2024/04/15 03:09:08;;;;;;;1999.90;999.90;;;14.30;80.50;;;;;;6425335;22;20220;-69
2024/04/15 03:11:34;;;;;;;1999.90;999.90;;;14.40;80.70;;;;;;6425382;22;20254;-70
2024/04/15 03:14:00;;;;;;;1999.90;999.90;;;14.40;80.60;;;;;;6425208;22;20230;-68
2024/04/15 03:16:25;;;;;;;1999.90;999.90;;;14.40;80.80;;;;;;6380407;22;20702;-69
2024/04/15 03:18:51;;;;;;;1999.90;999.90;;;14.30;80.80;;;;;;6425747;22;20266;-69
2024/04/15 03:21:17;;;;;;;1999.90;999.90;;;14.30;81.00;;;;;;6425397;22;20216;-69
2024/04/15 03:23:44;;;;;;;1999.90;999.90;;;14.30;81.30;;;;;;6425440;22;20250;-68
2024/04/15 03:26:10;;;;;;;1999.90;999.90;;;14.20;81.50;;;;;;6424125;22;20243;-68
2024/04/15 03:28:36;;;;;;;1999.90;999.90;;;14.20;81.80;;;;;;6425323;22;20257;-68
2024/04/15 03:31:01;;;;;;;1999.90;999.90;;;14.20;81.90;;;;;;6425638;22;20226;-69
2024/04/15 03:33:27;;;;;;;1999.90;999.90;;;14.20;82.00;;;;;;6425548;22;20943;-69
2024/04/15 03:35:52;;;;;;;1999.90;999.90;;;14.10;82.10;;;;;;6381672;22;20227;-68
2024/04/15 03:38:18;;;;;;;1999.90;999.90;;;14.10;82.30;;;;;;6424084;22;20448;-68
2024/04/15 03:40:44;;;;;;;1999.90;999.90;;;14.10;82.40;;;;;;6425434;22;20334;-68
2024/04/15 03:43:09;;;;;;;1999.90;999.90;;;14.10;82.50;;;;;;6425515;22;20270;-68
2024/04/15 03:45:35;;;;;;;1999.90;999.90;;;14.00;82.70;;;;;;6381500;22;20593;-68
2024/04/15 03:48:00;;;;;;;1999.90;999.90;;;13.90;82.80;;;;;;6423705;22;20702;-68
2024/04/15 03:50:26;;;;;;;1999.90;999.90;;;14.00;82.90;;;;;;6381841;22;20223;-68
2024/04/15 03:52:52;;;;;;;1999.90;999.90;;;14.00;82.90;;;;;;6425072;22;20219;-69
2024/04/15 03:55:17;;;;;;;1999.90;999.90;;;14.10;83.00;;;;;;6425322;22;20227;-68
2024/04/15 03:57:43;;;;;;;1999.90;999.90;;;14.10;82.90;;;;;;6423629;22;20238;-69
2024/04/15 04:00:09;;;;;;;1999.90;999.90;;;14.20;82.90;;;;;;6425673;22;20222;-69
2024/04/15 04:02:35;;;;;;;1999.90;999.90;;;14.20;82.90;;;;;;6425688;22;20215;-68
2024/04/15 04:05:00;;;;;;;1999.90;999.90;;;14.30;82.90;;;;;;6425392;22;20525;-69
2024/04/15 04:07:26;;;;;;;1999.90;999.90;;;14.30;82.80;;;;;;6423409;22;20235;-69
2024/04/15 04:09:51;;;;;;;1999.90;999.90;;;14.30;82.80;;;;;;6381299;22;20263;-69
2024/04/15 04:12:17;;;;;;;1999.90;999.90;;;14.30;82.70;;;;;;6381329;22;20236;-69
2024/04/15 04:14:43;;;;;;;1999.90;999.90;;;14.30;82.60;;;;;;6425118;22;20326;-68
2024/04/15 04:17:09;;;;;;;1999.90;999.90;;;14.30;82.50;;;;;;6423226;22;20232;-68
2024/04/15 04:19:35;;;;;;;1999.90;999.90;;;14.30;82.40;;;;;;6425165;22;20729;-69
2024/04/15 04:22:01;;;;;;;1999.90;999.90;;;14.30;82.30;;;;;;6425061;22;20264;-69
2024/04/15 04:24:28;;;;;;;1999.90;999.90;;;14.30;82.30;;;;;;6424569;22;20258;-68
2024/04/15 04:26:53;;;;;;;1999.90;999.90;;;14.20;82.10;;;;;;6423234;22;20258;-69
2024/04/15 04:29:19;;;;;;;1999.90;999.90;;;14.20;82.10;;;;;;6425565;22;20220;-69
2024/04/15 04:31:44;;;;;;;1999.90;999.90;;;14.10;81.80;;;;;;6424388;22;20219;-69
2024/04/15 04:34:10;;;;;;;1999.90;999.90;;;14.10;81.70;;;;;;6381269;22;20223;-70
2024/04/15 04:36:43;;;;;;;1999.90;999.90;;;14.00;81.50;;;;;;6422794;21;20267;-69
2024/04/15 04:39:10;;;;;;;1999.90;999.90;;;13.90;81.30;;;;;;6424829;22;20263;-69
2024/04/15 04:41:35;;;;;;;1999.90;999.90;;;13.90;81.20;;;;;;6424789;22;20215;-70
2024/04/15 04:44:01;;;;;;;1999.90;999.90;;;13.80;81.00;;;;;;6424764;22;20538;-69
2024/04/15 04:46:27;;;;;;;1999.90;999.90;;;13.80;80.80;;;;;;6422771;22;20243;-69
2024/04/15 04:48:52;;;;;;;1999.90;999.90;;;13.70;80.60;;;;;;6424564;22;20330;-70
2024/04/15 04:51:18;;;;;;;1999.90;999.90;;;13.70;80.50;;;;;;6380829;22;20231;-69
2024/04/15 04:53:44;;;;;;;1999.90;999.90;;;13.70;80.20;;;;;;6380818;22;20254;-69
2024/04/15 04:56:10;;;;;;;1999.90;999.90;;;13.60;80.00;;;;;;6423065;22;20239;-69
2024/04/15 04:58:40;;;;;;;1999.90;999.90;;;13.60;79.70;;;;;;6424456;22;20219;-69
2024/04/15 05:01:12;;;;;;;1999.90;999.90;;;13.60;79.60;;;;;;6424535;22;20227;-69
2024/04/15 05:03:45;;;;;;;1999.90;999.90;;;13.60;79.40;;;;;;6424623;22;20576;-69
2024/04/15 05:06:13;;;;;;;1999.90;999.90;;;13.50;79.20;;;;;;6423024;22;20257;-69
2024/04/15 05:08:40;;;;;;;1999.90;999.90;;;13.50;79.00;;;;;;6424836;22;20311;-69
2024/04/15 05:11:06;;;;;;;1999.90;999.90;;;13.50;78.70;;;;;;6424486;22;20221;-69
2024/04/15 05:13:32;;;;;;;1999.90;999.90;;;13.40;78.50;;;;;;6424906;22;20553;-69
2024/04/15 05:16:09;;;;;;;1999.90;999.90;;;13.40;78.40;;;;;;6423625;22;20273;-70
2024/04/15 05:18:37;;;;;;;1999.90;999.90;;;13.30;78.30;;;;;;6424724;22;20219;-69
2024/04/15 05:21:04;;;;;;;1999.90;999.90;;;13.30;78.30;;;;;;6425051;22;20223;-69
2024/04/15 05:23:31;;;;;;;1999.90;999.90;;;13.30;78.10;;;;;;6424663;22;20234;-69
2024/04/15 05:29:03;;;;;;;1999.90;999.90;;;13.30;77.70;;;;;;6424330;21;20302;-69
2024/04/15 05:31:28;;;;;;;1999.90;999.90;;;13.20;77.60;;;;;;6427068;22;20642;-70
2024/04/15 05:33:55;;;;;;;1999.90;999.90;;;13.20;77.60;;;;;;6426372;22;20227;-69
2024/04/15 05:36:21;;;;;;;1999.90;999.90;;;13.20;77.60;;;;;;6410599;22;20228;-69
2024/04/15 05:38:46;;;;;;;1999.90;999.90;;;13.20;77.50;;;;;;6377118;22;20580;-69
2024/04/15 05:41:12;;;;;;;1999.90;999.90;;;13.30;77.50;;;;;;6376717;22;20217;-70
2024/04/15 05:43:38;;;;;;;1999.90;999.90;;;13.30;77.50;;;;;;6376689;22;20223;-70
2024/04/15 05:46:04;;;;;;;1999.90;999.90;;;13.40;77.40;;;;;;6375637;22;20623;-69
2024/04/15 05:48:31;;;;;;;1999.90;999.90;;;13.50;77.20;;;;;;6375987;22;20267;-69
2024/04/15 05:50:57;;;;;;;1999.90;999.90;;;13.50;77.00;;;;;;6376160;22;20224;-70
2024/04/15 05:53:22;;;;;;;1999.90;999.90;;;13.60;76.70;;;;;;6376191;22;20271;-70
2024/04/15 05:55:48;;;;;;;1999.90;999.90;;;13.70;76.60;;;;;;6376130;22;20224;-70
2024/04/15 05:58:13;;;;;;;1999.90;999.90;;;13.80;76.40;;;;;;6375089;22;20328;-70
2024/04/15 06:00:39;;;;;;;1999.90;999.90;;;13.80;76.10;;;;;;6376175;22;20543;-70
2024/04/15 06:03:05;;;;;;;1999.90;999.90;;;13.90;75.70;;;;;;6376059;22;20220;-70
2024/04/15 06:05:32;;;;;;;1999.90;999.90;;;14.00;75.40;;;;;;6375894;22;21000;-70
2024/04/15 06:13:43;;;;;;;1999.90;999.90;;;14.30;74.30;;;;;;6456503;22;20356;-72
2024/04/15 06:16:40;;;;;;;1999.90;999.90;;;14.30;73.90;;;;;;6474687;22;20257;-70
2024/04/15 06:19:06;;;;;;;1999.90;999.90;;;14.40;73.00;;;;;;6475889;22;20223;-70
2024/04/15 06:21:32;;;;;;;1999.90;999.90;;;14.50;72.70;;;;;;6475741;22;20260;-70
2024/04/15 06:23:57;;;;;;;1999.90;999.90;;;14.70;72.20;;;;;;6475809;22;20265;-70
2024/04/15 06:26:23;;;;;;;1999.90;999.90;;;14.80;71.70;;;;;;6474612;22;20274;-69
2024/04/15 06:28:48;;;;;;;1999.90;999.90;;;14.90;71.40;;;;;;6476244;22;20215;-70
2024/04/15 06:31:14;;;;;;;1999.90;999.90;;;15.00;71.00;;;;;;6431971;22;20313;-70
2024/04/15 06:33:40;;;;;;;1999.90;999.90;;;15.20;70.40;;;;;;6475631;22;20292;-70
2024/04/15 06:36:05;;;;;;;1999.90;999.90;;;15.20;69.80;;;;;;6474628;22;20230;-69
2024/04/15 06:38:31;;;;;;;1999.90;999.90;;;15.40;69.90;;;;;;6476139;22;20265;-70
2024/04/15 06:40:57;;;;;;;1999.90;999.90;;;15.50;69.30;;;;;;6475840;22;20265;-70
2024/04/15 06:43:23;;;;;;;1999.90;999.90;;;15.60;68.00;;;;;;6475491;22;20228;-70
2024/04/15 06:45:48;;;;;;;1999.90;999.90;;;15.60;67.60;;;;;;6475419;22;20325;-70
2024/04/15 06:48:16;;;;;;;1999.90;999.90;;;15.70;67.60;;;;;;6474027;22;20741;-70
2024/04/15 06:50:41;;;;;;;1999.90;999.90;;;15.80;66.70;;;;;;6431247;22;20606;-70
2024/04/15 06:53:07;;;;;;;1999.90;999.90;;;16.00;66.20;;;;;;6475842;22;20327;-70
2024/04/15 06:55:33;;;;;;;1999.90;999.90;;;16.10;65.20;;;;;;6476008;22;20216;-71
2024/04/15 06:57:58;;;;;;;1999.90;999.90;;;16.30;64.60;;;;;;6474168;22;20238;-70
2024/04/15 07:00:24;;;;;;;1999.90;999.90;;;16.50;64.50;;;;;;6475605;22;20291;-71
2024/04/15 07:02:52;;;;;;;1999.90;999.90;;;16.70;63.80;;;;;;6431218;22;20235;-71
2024/04/15 07:05:18;;;;;;;1999.90;999.90;;;16.80;63.00;;;;;;6475618;22;20228;-71
2024/04/15 07:07:43;;;;;;;1999.90;999.90;;;16.90;62.50;;;;;;6474517;22;20275;-71
2024/04/15 07:10:10;;;;;;;1999.90;999.90;;;17.00;62.20;;;;;;6476230;22;20719;-71
2024/04/15 07:12:36;;;;;;;1999.90;999.90;;;17.10;62.00;;;;;;6456017;22;20265;-71
2024/04/15 07:15:02;;;;;;;1999.90;999.90;;;17.20;61.80;;;;;;6425153;22;20217;-71
2024/04/15 07:17:27;;;;;;;1999.90;999.90;;;17.30;61.80;;;;;;6423578;22;20560;-71
2024/04/15 07:19:53;;;;;;;1999.90;999.90;;;17.30;61.50;;;;;;6425073;22;20268;-71
2024/04/15 07:22:18;;;;;;;1999.90;999.90;;;17.40;61.60;;;;;;6425320;22;20265;-71
2024/04/15 07:24:44;;;;;;;1999.90;999.90;;;17.50;61.40;;;;;;6425291;22;20541;-71
2024/04/15 07:27:10;;;;;;;1999.90;999.90;;;17.50;61.30;;;;;;6424214;22;20234;-71
2024/04/15 07:29:36;;;;;;;1999.90;999.90;;;17.50;60.90;;;;;;6425552;22;20541;-71
2024/04/15 07:32:05;;;;;;;1999.90;999.90;;;17.40;60.70;;;;;;6424987;22;20257;-71
2024/04/15 07:34:30;;;;;;;1999.90;999.90;;;17.30;60.10;;;;;;6427544;22;20571;-70
2024/04/15 07:36:56;;;;;;;1999.90;999.90;;;17.10;60.60;;;;;;6424271;22;20241;-71
2024/04/15 07:39:22;;;;;;;1999.90;999.90;;;17.10;61.00;;;;;;6425459;22;20247;-71
2024/04/15 07:41:47;;;;;;;1999.90;999.90;;;16.90;60.60;;;;;;6425123;22;20216;-70
2024/04/15 07:44:13;;;;;;;1999.90;999.90;;;16.70;60.40;;;;;;6424908;22;20266;-70
2024/04/15 07:46:38;;;;;;;1999.90;999.90;;;16.60;61.00;;;;;;6423416;22;20230;-71
2024/04/15 07:49:04;;;;;;;1999.90;999.90;;;16.50;61.00;;;;;;6424773;22;20266;-71
2024/04/15 07:51:30;;;;;;;1999.90;999.90;;;16.50;61.40;;;;;;6424748;22;20530;-70
2024/04/15 07:53:55;;;;;;;1999.90;999.90;;;16.40;61.40;;;;;;6424608;22;20256;-71
2024/04/15 07:56:21;;;;;;;1999.90;999.90;;;16.40;61.70;;;;;;6423448;22;20276;-70
2024/04/15 07:58:46;;;;;;;1999.90;999.90;;;16.40;61.90;;;;;;6424298;22;20221;-70
2024/04/15 08:01:12;;;;;;;1999.90;999.90;;;16.40;61.90;;;;;;6424602;22;20217;-70
2024/04/15 08:03:38;;;;;;;1999.90;999.90;;;16.40;61.70;;;;;;6381118;22;20318;-70
2024/04/15 08:06:03;;;;;;;1999.90;999.90;;;16.30;61.50;;;;;;6423031;22;20695;-69
2024/04/15 08:08:29;;;;;;;1999.90;999.90;;;16.20;61.80;;;;;;6424615;22;20336;-70
2024/04/15 08:10:55;;;;;;;1999.90;999.90;;;16.20;62.10;;;;;;6424629;22;20256;-70
2024/04/15 08:13:21;;;;;;;1999.90;999.90;;;16.30;62.40;;;;;;6424241;22;20222;-70
2024/04/15 08:15:47;;;;;;;1999.90;999.90;;;16.60;61.90;;;;;;6424398;22;20272;-70
2024/04/15 08:18:13;;;;;;;1999.90;999.90;;;16.80;61.60;;;;;;6423415;22;20221;-70
2024/04/15 08:20:38;;;;;;;1999.90;999.90;;;17.10;61.40;;;;;;6424468;22;20348;-70
2024/04/15 08:23:04;;;;;;;1999.90;999.90;;;17.50;60.90;;;;;;6424451;22;20221;-70
2024/04/15 08:25:29;;;;;;;1999.90;999.90;;;17.60;59.40;;;;;;6380893;22;20233;-71
2024/04/15 08:27:56;;;;;;;1999.90;999.90;;;17.70;58.70;;;;;;6422919;22;20591;-70
2024/04/15 08:30:22;;;;;;;1999.90;999.90;;;17.90;58.60;;;;;;6424416;22;20719;-71
2024/04/15 08:32:50;;;;;;;1999.90;999.90;;;18.00;58.10;;;;;;6424476;22;20228;-70
2024/04/15 08:35:16;;;;;;;1999.90;999.90;;;18.20;57.80;;;;;;6380618;22;20288;-71
2024/04/15 08:37:41;;;;;;;1999.90;999.90;;;18.40;57.10;;;;;;6423011;22;20231;-71
2024/04/15 08:40:09;;;;;;;1999.90;999.90;;;18.60;56.30;;;;;;6424443;22;20219;-71
2024/04/15 08:42:40;;;;;;;1999.90;999.90;;;18.80;55.80;;;;;;6424482;22;20328;-71
2024/04/15 08:45:07;;;;;;;1999.90;999.90;;;19.10;55.30;;;;;;6424244;22;20212;-71
2024/04/15 08:47:34;;;;;;;1999.90;999.90;;;19.20;54.10;;;;;;6422849;22;20231;-71
2024/04/15 08:50:03;;;;;;;1999.90;999.90;;;19.50;54.50;;;;;;6424243;22;20215;-71
2024/04/15 08:52:28;;;;;;;1999.90;999.90;;;19.90;54.20;;;;;;6424016;22;20317;-71
2024/04/15 08:54:54;;;;;;;1999.90;999.90;;;20.30;54.00;;;;;;6380596;22;20243;-71
2024/04/15 08:57:21;;;;;;;1999.90;999.90;;;20.60;52.50;;;;;;6423355;22;20231;-71
2024/04/15 08:59:48;;;;;;;1999.90;999.90;;;20.80;52.20;;;;;;6424143;22;20678;-72
2024/04/15 09:02:18;;;;;;;1999.90;999.90;;;21.20;52.30;;;;;;6424116;22;20216;-72
2024/04/15 09:04:44;;;;;;;1999.90;999.90;;;21.50;51.50;;;;;;6424274;22;20216;-71
2024/04/15 09:07:10;;;;;;;1999.90;999.90;;;21.90;50.80;;;;;;6422613;22;20280;-71
2024/04/15 09:09:36;;;;;;;1999.90;999.90;;;22.10;49.90;;;;;;6424097;22;20669;-72
2024/04/15 09:12:02;;;;;;;1999.90;999.90;;;22.30;49.20;;;;;;6424402;22;20240;-72
2024/04/15 09:14:27;;;;;;;1999.90;999.90;;;22.50;49.00;;;;;;6424520;22;20224;-72
2024/04/15 09:16:54;;;;;;;1999.90;999.90;;;22.60;48.70;;;;;;6422932;22;20229;-72
2024/04/15 09:19:22;;;;;;;1999.90;999.90;;;22.70;48.10;;;;;;6424546;22;20337;-72
2024/04/15 09:21:48;;;;;;;1999.90;999.90;;;22.70;47.60;;;;;;6424104;22;20262;-72
2024/04/15 09:24:13;;;;;;;1999.90;999.90;;;22.80;46.90;;;;;;6424292;22;20216;-72
2024/04/15 09:26:39;;;;;;;1999.90;999.90;;;22.90;46.90;;;;;;6423117;22;20237;-72
2024/04/15 09:29:05;;;;;;;1999.90;999.90;;;23.00;46.20;;;;;;6380591;22;20654;-72
2024/04/15 09:31:32;;;;;;;1999.90;999.90;;;22.90;45.10;;;;;;6380496;22;20257;-72
2024/04/15 09:33:58;;;;;;;1999.90;999.90;;;22.80;44.50;;;;;;6424361;22;20226;-72
2024/04/15 09:36:24;;;;;;;1999.90;999.90;;;22.80;44.60;;;;;;6422680;22;20312;-71
2024/04/15 09:38:50;;;;;;;1999.90;999.90;;;22.70;43.90;;;;;;6380472;22;20230;-72
2024/04/15 09:41:16;;;;;;;1999.90;999.90;;;22.70;44.10;;;;;;6424383;22;20742;-72
2024/04/15 09:43:44;;;;;;;1999.90;999.90;;;23.00;44.60;;;;;;6424067;22;20253;-72
2024/04/15 09:46:12;;;;;;;1999.90;999.90;;;23.10;43.40;;;;;;6422637;22;20231;-72
2024/04/15 09:48:39;;;;;;;1999.90;999.90;;;23.20;43.20;;;;;;6424128;22;20736;-72
2024/04/15 09:51:07;;;;;;;1999.90;999.90;;;23.40;42.40;;;;;;6379676;22;20679;-71
2024/04/15 09:53:41;;;;;;;1999.90;999.90;;;23.40;41.90;;;;;;6423761;22;20602;-72
2024/04/15 09:56:13;;;;;;;1999.90;999.90;;;23.50;41.60;;;;;;6422456;22;20275;-71
2024/04/15 09:58:43;;;;;;;1999.90;999.90;;;23.50;41.60;;;;;;6424023;22;20219;-71
2024/04/15 10:01:11;;;;;;;1999.90;999.90;;;23.60;41.30;;;;;;6423854;22;20231;-71
2024/04/15 10:03:39;;;;;;;1999.90;999.90;;;23.70;41.90;;;;;;6423951;22;20270;-72
2024/04/15 10:06:09;;;;;;;1999.90;999.90;;;24.10;41.80;;;;;;6422708;22;20258;-72
2024/04/15 10:08:35;;;;;;;1999.90;999.90;;;24.30;41.00;;;;;;6423823;22;20334;-72
2024/04/15 10:11:01;;;;;;;1999.90;999.90;;;24.50;41.20;;;;;;6424126;22;20675;-72
2024/04/15 10:13:26;;;;;;;1999.90;999.90;;;24.70;40.50;;;;;;6424047;22;20228;-72
2024/04/15 10:16:02;;;;;;;1999.90;999.90;;;24.70;39.90;;;;;;6381985;22;20227;-72
2024/04/15 10:18:29;;;;;;;1999.90;999.90;;;24.70;39.30;;;;;;6426101;22;20223;-72
2024/04/15 10:20:56;;;;;;;1999.90;999.90;;;24.60;38.50;;;;;;6426039;22;20759;-72
2024/04/15 10:23:24;;;;;;;1999.90;999.90;;;24.40;37.70;;;;;;6426097;22;20727;-71
2024/04/15 10:25:50;;;;;;;1999.90;999.90;;;24.30;38.30;;;;;;6425952;22;20706;-72
2024/04/15 10:28:17;;;;;;;1999.90;999.90;;;24.30;37.90;;;;;;6425237;21;20267;-80
2024/04/15 10:30:47;;;;;;;1999.90;999.90;;;24.30;36.50;;;;;;6392075;22;20246;-80
2024/04/15 10:33:15;;;;;;;1999.90;999.90;;;24.40;37.40;;;;;;6390466;22;20227;-80
2024/04/15 10:35:43;;;;;;;1999.90;999.90;;;24.70;37.50;;;;;;6386504;22;20220;-81
2024/04/15 10:38:13;;;;;;;1999.90;999.90;;;24.70;37.30;;;;;;6426104;22;20262;-80
2024/04/15 10:40:44;;;;;;;1999.90;999.90;;;24.80;36.50;;;;;;6384632;22;20330;-80
2024/04/15 10:43:18;;;;;;;1999.90;999.90;;;25.00;37.10;;;;;;6381955;22;20231;-79
2024/04/15 10:45:47;;;;;;;1999.90;999.90;;;25.30;36.80;;;;;;6415525;22;20310;-78
2024/04/15 10:48:13;;;;;;;1999.90;999.90;;;25.40;36.80;;;;;;6425419;22;20279;-78
2024/04/15 10:50:45;;;;;;;1999.90;999.90;;;25.50;37.40;;;;;;6382845;22;20223;-79
2024/04/15 10:53:11;;;;;;;1999.90;999.90;;;25.70;36.60;;;;;;6426647;22;20262;-80
2024/04/15 10:55:36;;;;;;;1999.90;999.90;;;26.00;37.00;;;;;;6426792;22;20670;-79
2024/04/15 10:58:07;;;;;;;1999.90;999.90;;;26.40;36.80;;;;;;6381504;22;20330;-79
2024/04/15 11:00:33;;;;;;;1999.90;999.90;;;26.70;36.90;;;;;;6383484;22;20321;-79
2024/04/15 11:03:00;;;;;;;1999.90;999.90;;;26.60;36.10;;;;;;6426666;22;20231;-79
2024/04/15 11:05:26;;;;;;;1999.90;999.90;;;26.50;35.80;;;;;;6426777;22;20674;-78
2024/04/15 11:07:53;;;;;;;1999.90;999.90;;;26.60;36.10;;;;;;6381361;22;20258;-78
2024/04/15 11:10:19;;;;;;;1999.90;999.90;;;26.80;35.70;;;;;;6426179;22;20220;-79
2024/04/15 11:12:46;;;;;;;1999.90;999.90;;;26.90;34.30;;;;;;6426257;22;20331;-79
2024/04/15 11:15:15;;;;;;;1999.90;999.90;;;26.90;32.50;;;;;;6382776;22;20228;-79
2024/04/15 11:17:49;;;;;;;1999.90;999.90;;;26.90;32.50;;;;;;6382559;22;20227;-79
2024/04/15 11:20:15;;;;;;;1999.90;999.90;;;26.60;31.50;;;;;;6426766;22;20258;-79
2024/04/15 11:22:41;;;;;;;1999.90;999.90;;;26.60;33.10;;;;;;6382904;22;20228;-79
2024/04/15 11:25:09;;;;;;;1999.90;999.90;;;26.60;32.70;;;;;;6382068;22;20320;-80
2024/04/15 11:27:37;;;;;;;1999.90;999.90;;;26.70;32.80;;;;;;6381488;22;20255;-80
2024/04/15 11:30:05;;;;;;;1999.90;999.90;;;26.80;32.70;;;;;;6477949;22;20222;-79
2024/04/15 11:32:32;;;;;;;1999.90;999.90;;;26.50;33.00;;;;;;6477756;22;20261;-80
2024/04/15 11:34:58;;;;;;;1999.90;999.90;;;26.60;33.00;;;;;;6477597;22;20736;-79
2024/04/15 11:37:24;;;;;;;1999.90;999.90;;;26.60;32.80;;;;;;6476731;22;20225;-80
2024/04/15 11:39:50;;;;;;;1999.90;999.90;;;26.60;32.80;;;;;;6477615;22;20227;-79
2024/04/15 11:42:17;;;;;;;1999.90;999.90;;;26.50;32.40;;;;;;6432953;22;20325;-80
2024/04/15 11:44:42;;;;;;;1999.90;999.90;;;26.70;31.80;;;;;;6433422;22;20227;-80
2024/04/15 11:47:15;;;;;;;1999.90;999.90;;;26.90;31.30;;;;;;6477220;22;20261;-79
2024/04/15 11:49:41;;;;;;;1999.90;999.90;;;27.00;31.80;;;;;;6434876;22;20269;-80
2024/04/15 11:52:08;;;;;;;1999.90;999.90;;;27.20;31.70;;;;;;6434706;22;20252;-79
2024/04/15 11:54:36;;;;;;;1999.90;999.90;;;27.20;31.10;;;;;;6434369;22;20265;-80
2024/04/15 11:57:02;;;;;;;1999.90;999.90;;;26.90;30.60;;;;;;6433302;22;20226;-79
2024/04/15 11:59:29;;;;;;;1999.90;999.90;;;26.60;30.40;;;;;;6435001;22;20292;-80
2024/04/15 12:02:05;;;;;;;1999.90;999.90;;;26.50;31.20;;;;;;6435685;22;20226;-80
2024/04/15 12:04:32;;;;;;;1999.90;999.90;;;26.40;31.50;;;;;;6396013;22;20340;-80
2024/04/15 12:07:03;;;;;;;1999.90;999.90;;;26.10;31.60;;;;;;6392663;22;20305;-81
2024/04/15 12:27:44;;;;;;;1999.90;999.90;;;26.40;32.40;;;;;;6485920;22;20265;-85
2024/04/15 12:30:10;;;;;;;1999.90;999.90;;;26.00;32.60;;;;;;6482293;22;20741;-84
2024/04/15 12:32:40;;;;;;;1999.90;999.90;;;25.30;32.30;;;;;;6486324;22;20230;-85
2024/04/15 12:35:06;;;;;;;1999.90;999.90;;;24.70;33.10;;;;;;6489390;22;20697;-84
2024/04/15 12:37:32;;;;;;;1999.90;999.90;;;24.70;33.90;;;;;;6488157;22;20673;-84
2024/04/15 12:39:58;;;;;;;1999.90;999.90;;;24.90;34.30;;;;;;6486288;22;20246;-85
2024/04/15 12:42:24;;;;;;;1999.90;999.90;;;25.30;34.50;;;;;;6487445;22;20253;-85
2024/04/15 12:44:49;;;;;;;1999.90;999.90;;;25.50;34.20;;;;;;6486659;22;20238;-86
2024/04/15 12:47:15;;;;;;;1999.90;999.90;;;25.60;34.20;;;;;;6485882;22;20226;-85
2024/04/15 12:49:41;;;;;;;1999.90;999.90;;;25.90;34.40;;;;;;6487169;22;20277;-85
2024/04/15 12:52:06;;;;;;;1999.90;999.90;;;26.30;34.30;;;;;;6486970;22;20317;-85
2024/04/15 12:54:32;;;;;;;1999.90;999.90;;;26.60;33.90;;;;;;6488230;22;20328;-85
2024/04/15 12:56:58;;;;;;;1999.90;999.90;;;26.20;33.00;;;;;;6487993;22;20265;-85
2024/04/15 12:59:24;;;;;;;1999.90;999.90;;;25.60;33.50;;;;;;6486595;22;20238;-84
2024/04/15 13:01:50;;;;;;;1999.90;999.90;;;25.40;34.00;;;;;;6488050;22;20226;-84
2024/04/15 13:04:15;;;;;;;1999.90;999.90;;;25.10;33.80;;;;;;6489454;22;20226;-85
2024/04/15 13:06:41;;;;;;;1999.90;999.90;;;25.00;33.30;;;;;;6486739;22;20222;-84
2024/04/15 13:09:07;;;;;;;1999.90;999.90;;;24.80;33.40;;;;;;6487392;22;20238;-85